Moleson — HBLE — position and weather

sailwx.info

Track history (hours):
 
Tides and Currents Weather Stations Pressure Air Temp Water Temp Dewpoint Dewpoint Depression Visibility Wind Speed Wind Dir Waves Ship Positions

Moleson

Last reported at 2016-Jun-28 04:32 UTC. Time now 2016-Jun-28 06:02 UTC.
Position N 51°46' E 002°35'.

Length 181 m; draft 5.6 m.

Type: Ship. MMSI: 269039000.

Date/timePositionNaut miles runAvg speedWind from/ knotsBaromVisibWave heightAir tempDewpointWater temp
2016-Jun-28 04:32N 51°46' E 002°35'1313.6
2016-Jun-28 03:33N 51°36' E 002°21'1312.8
2016-Jun-28 02:33N 51°26' E 002°08'1212.4
2016-Jun-28 01:33N 51°17' E 001°55'1211.8
2016-Jun-28 00:33N 51°08' E 001°43'1111.2
2016-Jun-27 23:33N 50°58' E 001°33'1211.8
2016-Jun-27 22:33N 50°48' E 001°25'1212.5
2016-Jun-27 21:33N 50°38' E 001°13'1512.9
2016-Jun-27 20:24N 50°29' E 000°53'1113.2
2016-Jun-27 19:33N 50°26' E 000°37'1313.0
2016-Jun-27 18:33N 50°23' E 000°17'1313.1
2016-Jun-27 17:33N 50°20' W 000°03'1313.3
2016-Jun-27 16:33N 50°17' W 000°23'1414.0
2016-Jun-27 15:33N 50°13' W 000°44'1515.3
2016-Jun-27 14:33N 50°08' W 001°07'1616.4
2016-Jun-27 13:34N 50°03' W 001°32'3416.6
2016-Jun-27 11:30N 49°55' W 002°23'1415.2
2016-Jun-27 10:33N 49°51' W 002°44'1614.3
2016-Jun-27 09:27N 49°44' W 003°06'1213.9
2016-Jun-27 08:33N 49°38' W 003°23'2913.4
2016-Jun-27 06:23N 49°23' W 004°01'1112.9
2016-Jun-27 05:33N 49°17' W 004°15'3812.1
2016-Jun-27 02:25N 48°58' W 005°05'1111.8
2016-Jun-27 01:32N 48°53' W 005°19'1212.1
2016-Jun-27 00:33N 48°47' W 005°35'1211.9
2016-Jun-26 23:33N 48°37' W 005°43'  
Track history (hours):
 
Tides and Currents Weather Stations Pressure Air Temp Water Temp Dewpoint Dewpoint Depression Visibility Wind Speed Wind Dir Waves Ship Positions

Moleson

Last reported at 2016-Jun-28 04:32 UTC. Time now 2016-Jun-28 06:02 UTC.
Position N 51°46' E 002°35'.

Length 181 m; draft 5.6 m.

Type: Ship. MMSI: 269039000.

Date/timePositionNaut miles runAvg speedWind from/ knotsBaromVisibWave heightAir tempDewpointWater temp
2016-Jun-28 04:32N 51°46' E 002°35'1313.6
2016-Jun-28 03:33N 51°36' E 002°21'1312.8
2016-Jun-28 02:33N 51°26' E 002°08'1212.4
2016-Jun-28 01:33N 51°17' E 001°55'1211.8
2016-Jun-28 00:33N 51°08' E 001°43'1111.2
2016-Jun-27 23:33N 50°58' E 001°33'1211.8
2016-Jun-27 22:33N 50°48' E 001°25'1212.5
2016-Jun-27 21:33N 50°38' E 001°13'1512.9
2016-Jun-27 20:24N 50°29' E 000°53'1113.2
2016-Jun-27 19:33N 50°26' E 000°37'1313.0
2016-Jun-27 18:33N 50°23' E 000°17'1313.1
2016-Jun-27 17:33N 50°20' W 000°03'1313.3
2016-Jun-27 16:33N 50°17' W 000°23'1414.0
2016-Jun-27 15:33N 50°13' W 000°44'1515.3
2016-Jun-27 14:33N 50°08' W 001°07'1616.4
2016-Jun-27 13:34N 50°03' W 001°32'3416.6
2016-Jun-27 11:30N 49°55' W 002°23'1415.2
2016-Jun-27 10:33N 49°51' W 002°44'1614.3
2016-Jun-27 09:27N 49°44' W 003°06'1213.9
2016-Jun-27 08:33N 49°38' W 003°23'2913.4
2016-Jun-27 06:23N 49°23' W 004°01'1112.9
2016-Jun-27 05:33N 49°17' W 004°15'3812.1
2016-Jun-27 02:25N 48°58' W 005°05'1111.8
2016-Jun-27 01:32N 48°53' W 005°19'1212.1
2016-Jun-27 00:33N 48°47' W 005°35'1211.9
2016-Jun-26 23:33N 48°37' W 005°43'  

Dump ship's entire track history